createdAt,value
2016-04-12T00:00:27.454Z,1004.28
2016-04-12T00:01:27.503Z,1004.27
2016-04-12T00:02:27.553Z,1004.23
2016-04-12T00:03:27.603Z,1004.23
2016-04-12T00:04:27.667Z,1004.22
2016-04-12T00:05:27.701Z,1004.19
2016-04-12T00:06:27.750Z,1004.17
2016-04-12T00:07:27.816Z,1004.19
2016-04-12T00:08:27.855Z,1004.23
2016-04-12T00:09:27.911Z,1004.16
2016-04-12T00:10:27.961Z,1004.2
2016-04-12T00:11:28.010Z,1004.17
2016-04-12T00:12:28.075Z,1004.21
2016-04-12T00:13:28.125Z,1004.14
2016-04-12T00:14:28.175Z,1004.17
2016-04-12T00:15:28.224Z,1004.17
2016-04-12T00:16:28.289Z,1004.1
2016-04-12T00:17:28.322Z,1004.11
2016-04-12T00:18:28.388Z,1004.06
2016-04-12T00:19:28.438Z,1004.06
2016-04-12T00:20:28.487Z,1004.09
2016-04-12T00:21:28.536Z,1004.06
2016-04-12T00:22:28.585Z,1004.05
2016-04-12T00:23:28.636Z,1004.06
2016-04-12T00:24:28.685Z,1004
2016-04-12T00:25:28.735Z,1004.04
2016-04-12T00:26:28.784Z,1003.99
2016-04-12T00:27:28.850Z,1004
2016-04-12T00:28:28.898Z,1003.99
2016-04-12T00:29:28.949Z,1003.93
2016-04-12T00:30:29.028Z,1003.98
2016-04-12T00:31:29.077Z,1003.97
2016-04-12T00:32:29.108Z,1003.94
2016-04-12T00:33:29.157Z,1003.87
2016-04-12T00:34:29.207Z,1003.87
2016-04-12T00:35:29.256Z,1003.85
2016-04-12T00:36:29.306Z,1003.81
2016-04-12T00:37:29.356Z,1003.78
2016-04-12T00:38:29.406Z,1003.74
2016-04-12T00:39:29.456Z,1003.75
2016-04-12T00:40:29.520Z,1003.77
2016-04-12T00:41:29.570Z,1003.84
2016-04-12T00:42:29.619Z,1003.87
2016-04-12T00:43:29.670Z,1003.83
2016-04-12T00:44:29.719Z,1003.88
2016-04-12T00:45:29.767Z,1003.81
2016-04-12T00:46:29.834Z,1003.79
2016-04-12T00:47:29.883Z,1003.81
2016-04-12T00:48:29.933Z,1003.81
2016-04-12T00:49:29.982Z,1003.81
2016-04-12T00:50:30.032Z,1003.76
2016-04-12T00:51:30.081Z,1003.78
2016-04-12T00:52:30.131Z,1003.76
2016-04-12T00:53:30.196Z,1003.8
2016-04-12T00:54:30.246Z,1003.85
2016-04-12T00:55:30.295Z,1003.85
2016-04-12T00:56:30.345Z,1003.89
2016-04-12T00:57:30.394Z,1003.91
2016-04-12T00:58:30.443Z,1003.9
2016-04-12T00:59:30.494Z,1003.94
2016-04-12T01:00:30.543Z,1003.92
2016-04-12T01:01:30.607Z,1003.93
2016-04-12T01:02:30.658Z,1003.96
2016-04-12T01:03:30.707Z,1003.94
2016-04-12T01:04:30.757Z,1003.94
2016-04-12T01:05:30.806Z,1003.92
2016-04-12T01:06:30.856Z,1003.93
2016-04-12T01:07:30.906Z,1003.92
2016-04-12T01:08:30.955Z,1003.97
2016-04-12T01:09:31.020Z,1003.93
2016-04-12T01:10:31.070Z,1003.85
2016-04-12T01:11:31.120Z,1003.86
2016-04-12T01:12:31.170Z,1003.79
2016-04-12T01:13:31.218Z,1003.79
2016-04-12T01:14:31.267Z,1003.73
2016-04-12T01:15:31.317Z,1003.69
2016-04-12T01:16:31.383Z,1003.69
2016-04-12T01:17:31.433Z,1003.65
2016-04-12T01:18:31.481Z,1003.62
2016-04-12T01:19:31.531Z,1003.64
2016-04-12T01:20:31.581Z,1003.64
2016-04-12T01:21:31.630Z,1003.64
2016-04-12T01:22:31.680Z,1003.67
2016-04-12T01:23:31.745Z,1003.63
2016-04-12T01:24:31.795Z,1003.66
2016-04-12T01:25:31.844Z,1003.67
2016-04-12T01:26:31.894Z,1003.63
2016-04-12T01:27:31.944Z,1003.65
2016-04-12T01:28:31.993Z,1003.68
2016-04-12T01:29:32.043Z,1003.7
2016-04-12T01:30:32.093Z,1003.75
2016-04-12T01:31:32.157Z,1003.76
2016-04-12T01:32:32.207Z,1003.79
2016-04-12T01:33:32.257Z,1003.78
2016-04-12T01:34:32.306Z,1003.79
2016-04-12T01:35:32.356Z,1003.81
2016-04-12T01:36:32.405Z,1003.76
2016-04-12T01:37:32.454Z,1003.76
2016-04-12T01:38:32.504Z,1003.76
2016-04-12T01:39:32.570Z,1003.77
2016-04-12T01:40:32.619Z,1003.74
2016-04-12T01:41:32.668Z,1003.72
2016-04-12T01:42:32.718Z,1003.64
2016-04-12T01:43:32.767Z,1003.57
2016-04-12T01:44:32.818Z,1003.56
2016-04-12T01:45:32.883Z,1003.56
2016-04-12T01:46:32.932Z,1003.55
2016-04-12T01:47:32.981Z,1003.59
2016-04-12T01:48:33.031Z,1003.6
2016-04-12T01:49:33.081Z,1003.62
2016-04-12T01:50:33.130Z,1003.58
2016-04-12T01:51:33.180Z,1003.56
2016-04-12T01:52:33.263Z,1003.55
2016-04-12T01:53:33.297Z,1003.54
2016-04-12T01:54:33.347Z,1003.54
2016-04-12T01:55:33.397Z,1003.58
2016-04-12T01:56:33.447Z,1003.56
2016-04-12T01:57:33.496Z,1003.58
2016-04-12T01:58:33.545Z,1003.58
2016-04-12T01:59:33.595Z,1003.65
2016-04-12T02:00:33.660Z,1003.63
2016-04-12T02:01:33.710Z,1003.65
2016-04-12T02:02:33.760Z,1003.69
2016-04-12T02:03:33.824Z,1003.69
2016-04-12T02:04:33.858Z,1003.74
2016-04-12T02:05:33.907Z,1003.77
2016-04-12T02:06:33.957Z,1003.76
2016-04-12T02:07:34.007Z,1003.77
2016-04-12T02:08:34.072Z,1003.74
2016-04-12T02:09:34.121Z,1003.69
2016-04-12T02:10:34.170Z,1003.62
2016-04-12T02:11:34.220Z,1003.61
2016-04-12T02:12:34.270Z,1003.61
2016-04-12T02:13:34.336Z,1003.61
2016-04-12T02:14:34.384Z,1003.58
2016-04-12T02:15:34.434Z,1003.57
2016-04-12T02:16:34.484Z,1003.57
2016-04-12T02:17:34.534Z,1003.53
2016-04-12T02:18:34.584Z,1003.47
2016-04-12T02:19:34.633Z,1003.47
2016-04-12T02:20:34.683Z,1003.44
2016-04-12T02:21:34.733Z,1003.39
2016-04-12T02:22:34.797Z,1003.38
2016-04-12T02:23:34.847Z,1003.39
2016-04-12T02:24:34.897Z,1003.37
2016-04-12T02:25:34.946Z,1003.39
2016-04-12T02:26:34.996Z,1003.36
2016-04-12T02:27:35.044Z,1003.35
2016-04-12T02:28:35.094Z,1003.27
2016-04-12T02:29:35.144Z,1003.28
2016-04-12T02:30:35.209Z,1003.25
2016-04-12T02:31:35.259Z,1003.25
2016-04-12T02:32:35.324Z,1003.27
2016-04-12T02:33:35.358Z,1003.28
2016-04-12T02:34:35.408Z,1003.29
2016-04-12T02:35:35.458Z,1003.27
2016-04-12T02:36:35.507Z,1003.27
2016-04-12T02:37:35.572Z,1003.21
2016-04-12T02:38:35.621Z,1003.17
2016-04-12T02:39:35.671Z,1003.1
2016-04-12T02:40:35.721Z,1003.1
2016-04-12T02:41:35.770Z,1003.06
2016-04-12T02:42:35.820Z,1003.11
2016-04-12T02:43:35.870Z,1003.13
2016-04-12T02:44:35.935Z,1003.18
2016-04-12T02:45:35.984Z,1003.23
2016-04-12T02:46:36.034Z,1003.19
2016-04-12T02:47:36.083Z,1003.17
2016-04-12T02:48:36.148Z,1003.14
2016-04-12T02:49:36.198Z,1003.16
2016-04-12T02:50:36.247Z,1003.08
2016-04-12T02:51:36.297Z,1003.05
2016-04-12T02:52:36.347Z,1003.01
2016-04-12T02:53:36.396Z,1002.99
2016-04-12T02:54:36.446Z,1002.97
2016-04-12T02:55:36.495Z,1002.97
2016-04-12T02:56:36.560Z,1002.96
2016-04-12T02:57:36.610Z,1002.96
2016-04-12T02:58:36.659Z,1003.02
2016-04-12T02:59:36.709Z,1003.02
2016-04-12T03:00:36.758Z,1003.06
2016-04-12T03:01:36.808Z,1003.11
2016-04-12T03:02:36.857Z,1003.15
2016-04-12T03:03:36.923Z,1003.2
2016-04-12T03:04:36.973Z,1003.21
2016-04-12T03:05:37.021Z,1003.25
2016-04-12T03:06:37.071Z,1003.23
2016-04-12T03:07:37.121Z,1003.26
2016-04-12T03:08:37.170Z,1003.22
2016-04-12T03:09:37.220Z,1003.24
2016-04-12T03:10:37.270Z,1003.23
2016-04-12T03:11:37.335Z,1003.25
2016-04-12T03:12:37.385Z,1003.25
2016-04-12T03:13:37.434Z,1003.28
2016-04-12T03:14:37.484Z,1003.26
2016-04-12T03:15:37.533Z,1003.23
2016-04-12T03:16:37.583Z,1003.23
2016-04-12T03:17:37.633Z,1003.23
2016-04-12T03:18:37.697Z,1003.21
2016-04-12T03:19:37.732Z,1003.19
2016-04-12T03:20:37.798Z,1003.18
2016-04-12T03:21:37.847Z,1003.22
2016-04-12T03:22:37.897Z,1003.27
2016-04-12T03:23:37.945Z,1003.31
2016-04-12T03:24:37.995Z,1003.33
2016-04-12T03:25:38.061Z,1003.37
2016-04-12T03:26:38.110Z,1003.33
2016-04-12T03:27:38.160Z,1003.29
2016-04-12T03:28:38.208Z,1003.36
2016-04-12T03:29:38.258Z,1003.35
2016-04-12T03:30:38.308Z,1003.36
2016-04-12T03:31:38.357Z,1003.39
2016-04-12T03:32:38.423Z,1003.38
2016-04-12T03:33:38.457Z,1003.38
2016-04-12T03:34:38.507Z,1003.37
2016-04-12T03:35:38.571Z,1003.33
2016-04-12T03:36:38.621Z,1003.34
2016-04-12T03:37:38.671Z,1003.31
2016-04-12T03:38:38.721Z,1003.29
2016-04-12T03:39:38.771Z,1003.26
2016-04-12T03:40:38.835Z,1003.28
2016-04-12T03:41:38.869Z,1003.26
2016-04-12T03:42:38.934Z,1003.26
2016-04-12T03:43:38.984Z,1003.24
2016-04-12T03:44:39.034Z,1003.21
2016-04-12T03:45:39.098Z,1003.21
2016-04-12T03:46:39.132Z,1003.2
2016-04-12T03:47:39.197Z,1003.17
2016-04-12T03:48:39.231Z,1003.17
2016-04-12T03:49:39.297Z,1003.12
2016-04-12T03:50:39.346Z,1003.15
2016-04-12T03:51:39.395Z,1003.12
2016-04-12T03:52:39.445Z,1003.1
2016-04-12T03:53:39.495Z,1003.1
2016-04-12T03:54:39.561Z,1003.09
2016-04-12T03:55:39.610Z,1003.1
2016-04-12T03:56:39.659Z,1003.07
2016-04-12T03:57:39.708Z,1003.07
2016-04-12T03:58:39.759Z,1003.03
2016-04-12T03:59:39.808Z,1003.02
2016-04-12T04:00:39.858Z,1003.01
2016-04-12T04:01:39.907Z,1003
2016-04-12T04:02:39.957Z,1002.97
2016-04-12T04:03:40.022Z,1002.94
2016-04-12T04:04:40.072Z,1002.97
2016-04-12T04:05:40.121Z,1002.96
2016-04-12T04:06:40.170Z,1002.95
2016-04-12T04:07:40.220Z,1002.98
2016-04-12T04:08:40.286Z,1002.95
2016-04-12T04:09:40.319Z,1002.91
2016-04-12T04:10:40.385Z,1002.89
2016-04-12T04:11:40.434Z,1002.9
2016-04-12T04:12:40.484Z,1002.9
2016-04-12T04:13:40.534Z,1002.89
2016-04-12T04:14:40.582Z,1002.91
2016-04-12T04:15:40.632Z,1002.91
2016-04-12T04:16:40.681Z,1002.9
2016-04-12T04:17:40.748Z,1002.92
2016-04-12T04:18:40.781Z,1002.9
2016-04-12T04:19:40.862Z,1002.88
2016-04-12T04:20:40.895Z,1002.9
2016-04-12T04:21:40.945Z,1002.92
2016-04-12T04:22:40.995Z,1002.92
2016-04-12T04:23:41.044Z,1002.91
2016-04-12T04:24:41.094Z,1002.87
2016-04-12T04:25:41.159Z,1002.87
2016-04-12T04:26:41.209Z,1002.89
2016-04-12T04:27:41.258Z,1002.86
2016-04-12T04:28:41.308Z,1002.84
2016-04-12T04:29:41.358Z,1002.86
2016-04-12T04:30:41.407Z,1002.87
2016-04-12T04:31:41.472Z,1002.87
2016-04-12T04:32:41.522Z,1002.87
2016-04-12T04:33:41.571Z,1002.87
2016-04-12T04:34:41.621Z,1002.86
2016-04-12T04:35:41.670Z,1002.84
2016-04-12T04:36:41.736Z,1002.79
2016-04-12T04:37:41.769Z,1002.81
2016-04-12T04:38:41.819Z,1002.81
2016-04-12T04:39:41.885Z,1002.89
2016-04-12T04:40:41.934Z,1002.91
2016-04-12T04:41:41.984Z,1002.96
2016-04-12T04:42:42.033Z,1003
2016-04-12T04:43:42.082Z,1003.06
2016-04-12T04:44:42.132Z,1003.12
2016-04-12T04:45:42.182Z,1003.14
2016-04-12T04:46:42.231Z,1003.17
2016-04-12T04:47:42.296Z,1003.19
2016-04-12T04:48:42.346Z,1003.17
2016-04-12T04:49:42.381Z,1003.21
2016-04-12T04:50:42.445Z,1003.16
2016-04-12T04:51:42.495Z,1003.13
2016-04-12T04:52:42.544Z,1003.11
2016-04-12T04:53:42.595Z,1003.11
2016-04-12T04:54:42.644Z,1003.14
2016-04-12T04:55:42.709Z,1003.15
2016-04-12T04:56:42.758Z,1003.14
2016-04-12T04:57:42.807Z,1003.15
2016-04-12T04:58:42.858Z,1003.18
2016-04-12T04:59:42.907Z,1003.15
2016-04-12T05:00:42.956Z,1003.18
2016-04-12T05:01:43.022Z,1003.18
2016-04-12T05:02:43.071Z,1003.19
2016-04-12T05:03:43.121Z,1003.16
2016-04-12T05:04:43.171Z,1003.19
2016-04-12T05:05:43.220Z,1003.17
2016-04-12T05:06:43.269Z,1003.19
2016-04-12T05:07:43.319Z,1003.21
2016-04-12T05:08:43.369Z,1003.19
2016-04-12T05:09:43.435Z,1003.17
2016-04-12T05:10:43.478Z,1003.2
2016-04-12T05:11:43.526Z,1003.22
2016-04-12T05:12:43.577Z,1003.22
2016-04-12T05:13:43.642Z,1003.21
2016-04-12T05:14:43.691Z,1003.22
2016-04-12T05:15:43.742Z,1003.23
2016-04-12T05:16:43.790Z,1003.25
2016-04-12T05:17:43.840Z,1003.23
2016-04-12T05:18:43.889Z,1003.21
2016-04-12T05:19:43.939Z,1003.22
2016-04-12T05:20:43.989Z,1003.24
2016-04-12T05:21:44.053Z,1003.2
2016-04-12T05:22:44.088Z,1003.18
2016-04-12T05:23:44.153Z,1003.21
2016-04-12T05:24:44.203Z,1003.22
2016-04-12T05:25:44.253Z,1003.19
2016-04-12T05:26:44.302Z,1003.25
2016-04-12T05:27:44.367Z,1003.24
2016-04-12T05:28:44.416Z,1003.26
2016-04-12T05:29:44.450Z,1003.27
2016-04-12T05:30:44.516Z,1003.3
2016-04-12T05:31:44.565Z,1003.31
2016-04-12T05:32:44.615Z,1003.27
2016-04-12T05:33:44.664Z,1003.33
2016-04-12T05:34:44.714Z,1003.3
2016-04-12T05:35:44.779Z,1003.35
2016-04-12T05:36:44.828Z,1003.37
2016-04-12T05:37:44.879Z,1003.41
2016-04-12T05:38:44.928Z,1003.4
2016-04-12T05:39:44.977Z,1003.41
2016-04-12T05:40:45.027Z,1003.42
2016-04-12T05:41:45.076Z,1003.45
2016-04-12T05:42:45.126Z,1003.44
2016-04-12T05:43:45.175Z,1003.45
2016-04-12T05:44:45.241Z,1003.43
2016-04-12T05:45:45.290Z,1003.45
2016-04-12T05:46:45.340Z,1003.46
2016-04-12T05:47:45.389Z,1003.42
2016-04-12T05:48:45.439Z,1003.41
2016-04-12T05:49:45.489Z,1003.37
2016-04-12T05:50:45.538Z,1003.35
2016-04-12T05:51:45.588Z,1003.33
2016-04-12T05:52:45.637Z,1003.35
2016-04-12T05:53:45.703Z,1003.36
2016-04-12T05:54:45.752Z,1003.39
2016-04-12T05:55:45.802Z,1003.36
2016-04-12T05:56:45.852Z,1003.35
2016-04-12T05:57:45.900Z,1003.31
2016-04-12T05:58:45.966Z,1003.32
2016-04-12T05:59:46.000Z,1003.32
2016-04-12T06:00:46.065Z,1003.39
2016-04-12T06:01:46.115Z,1003.38
2016-04-12T06:02:46.164Z,1003.33
2016-04-12T06:03:46.214Z,1003.34
2016-04-12T06:04:46.263Z,1003.32
2016-04-12T06:05:46.312Z,1003.33
2016-04-12T06:06:46.363Z,1003.31
2016-04-12T06:07:46.427Z,1003.33
2016-04-12T06:08:46.477Z,1003.35
2016-04-12T06:09:46.527Z,1003.34
2016-04-12T06:10:46.576Z,1003.35
2016-04-12T06:11:46.626Z,1003.35
2016-04-12T06:12:46.690Z,1003.36
2016-04-12T06:13:46.725Z,1003.38
2016-04-12T06:14:46.790Z,1003.42
2016-04-12T06:15:46.840Z,1003.35
2016-04-12T06:16:46.889Z,1003.33
2016-04-12T06:17:46.939Z,1003.35
2016-04-12T06:18:46.989Z,1003.33
2016-04-12T06:19:47.053Z,1003.32
2016-04-12T06:20:47.087Z,1003.41
2016-04-12T06:21:47.153Z,1003.4
2016-04-12T06:22:47.203Z,1003.43
2016-04-12T06:23:47.252Z,1003.43
2016-04-12T06:24:47.302Z,1003.44
2016-04-12T06:25:47.351Z,1003.48
2016-04-12T06:26:47.400Z,1003.47
2016-04-12T06:27:47.449Z,1003.45
2016-04-12T06:28:47.516Z,1003.44
2016-04-12T06:29:47.565Z,1003.45
2016-04-12T06:30:47.614Z,1003.46
2016-04-12T06:31:47.664Z,1003.46
2016-04-12T06:32:47.713Z,1003.43
2016-04-12T06:33:47.763Z,1003.46
2016-04-12T06:34:47.813Z,1003.42
2016-04-12T06:35:47.863Z,1003.43
2016-04-12T06:36:47.927Z,1003.43
2016-04-12T06:37:47.977Z,1003.45
2016-04-12T06:38:48.027Z,1003.43
2016-04-12T06:39:48.077Z,1003.48
2016-04-12T06:40:48.126Z,1003.46
2016-04-12T06:41:48.175Z,1003.47
2016-04-12T06:42:48.225Z,1003.53
2016-04-12T06:43:48.290Z,1003.49
2016-04-12T06:44:48.340Z,1003.5
2016-04-12T06:45:48.389Z,1003.49
2016-04-12T06:46:48.454Z,1003.49
2016-04-12T06:47:48.489Z,1003.48
2016-04-12T06:48:48.553Z,1003.49
2016-04-12T06:49:48.587Z,1003.5
2016-04-12T06:50:48.637Z,1003.53
2016-04-12T06:51:48.687Z,1003.47
2016-04-12T06:52:48.736Z,1003.5
2016-04-12T06:53:48.801Z,1003.54
2016-04-12T06:54:48.851Z,1003.53
2016-04-12T06:55:48.901Z,1003.55
2016-04-12T06:56:48.950Z,1003.53
2016-04-12T06:57:49.000Z,1003.56
2016-04-12T06:58:49.049Z,1003.57
2016-04-12T06:59:49.099Z,1003.55
2016-04-12T07:00:49.163Z,1003.57
2016-04-12T07:01:49.213Z,1003.52
2016-04-12T07:02:49.263Z,1003.59
2016-04-12T07:03:49.297Z,1003.58
2016-04-12T07:04:49.362Z,1003.6
2016-04-12T07:05:49.412Z,1003.61
2016-04-12T07:06:49.461Z,1003.61
2016-04-12T07:07:49.510Z,1003.61
2016-04-12T07:08:49.560Z,1003.6
2016-04-12T07:09:49.610Z,1003.63
2016-04-12T07:10:49.659Z,1003.64
2016-04-12T07:11:49.724Z,1003.65
2016-04-12T07:12:49.774Z,1003.65
2016-04-12T07:13:49.824Z,1003.63
2016-04-12T07:14:49.873Z,1003.67
2016-04-12T07:15:49.923Z,1003.65
2016-04-12T07:16:49.973Z,1003.67
2016-04-12T07:17:50.022Z,1003.61
2016-04-12T07:18:50.072Z,1003.6
2016-04-12T07:19:50.137Z,1003.61
2016-04-12T07:20:50.187Z,1003.6
2016-04-12T07:21:50.236Z,1003.61
2016-04-12T07:22:50.286Z,1003.55
2016-04-12T07:23:50.335Z,1003.58
2016-04-12T07:24:50.384Z,1003.55
2016-04-12T07:25:50.434Z,1003.59
2016-04-12T07:26:50.484Z,1003.52
2016-04-12T07:27:50.533Z,1003.58
2016-04-12T07:28:50.599Z,1003.6
2016-04-12T07:29:50.633Z,1003.57
2016-04-12T07:30:50.697Z,1003.52
2016-04-12T07:31:50.747Z,1003.56
2016-04-12T07:32:50.797Z,1003.53
2016-04-12T07:33:50.847Z,1003.55
2016-04-12T07:34:50.896Z,1003.57
2016-04-12T07:35:50.945Z,1003.57
2016-04-12T07:36:50.996Z,1003.56
2016-04-12T07:37:51.060Z,1003.62
2016-04-12T07:38:51.110Z,1003.56
2016-04-12T07:39:51.160Z,1003.61
2016-04-12T07:40:51.209Z,1003.59
2016-04-12T07:41:51.262Z,1003.55
2016-04-12T07:42:51.375Z,1003.57
2016-04-12T07:43:51.473Z,1003.55
2016-04-12T07:44:51.554Z,1003.55
2016-04-12T07:45:51.669Z,1003.54
2016-04-12T07:46:51.764Z,1003.53
2016-04-12T07:47:51.830Z,1003.51
2016-04-12T07:48:51.896Z,1003.53
2016-04-12T07:49:51.964Z,1003.48
2016-04-12T07:50:52.031Z,1003.53
2016-04-12T07:51:52.113Z,1003.51
2016-04-12T07:52:52.153Z,1003.51
2016-04-12T07:53:52.223Z,1003.52
2016-04-12T07:54:52.279Z,1003.53
2016-04-12T07:55:52.335Z,1003.52
2016-04-12T07:56:52.391Z,1003.56
2016-04-12T07:57:52.443Z,1003.58
2016-04-12T07:58:52.495Z,1003.54
2016-04-12T07:59:52.547Z,1003.52
2016-04-12T08:00:52.613Z,1003.5
2016-04-12T08:01:52.649Z,1003.47
2016-04-12T08:02:52.716Z,1003.53
2016-04-12T08:03:52.767Z,1003.49
2016-04-12T08:04:52.817Z,1003.51
2016-04-12T08:05:52.882Z,1003.55
2016-04-12T08:06:52.917Z,1003.51
2016-04-12T08:07:52.967Z,1003.53
2016-04-12T08:08:53.022Z,1003.51
2016-04-12T08:09:53.071Z,1003.56
2016-04-12T08:10:53.122Z,1003.54
2016-04-12T08:11:53.187Z,1003.56
2016-04-12T08:12:53.236Z,1003.56
2016-04-12T08:13:53.275Z,1003.66
2016-04-12T08:14:53.325Z,1003.69
2016-04-12T08:15:53.375Z,1003.65
2016-04-12T08:16:53.440Z,1003.65
2016-04-12T08:17:53.489Z,1003.71
2016-04-12T08:18:53.523Z,1003.67
2016-04-12T08:19:53.589Z,1003.65
2016-04-12T08:20:53.638Z,1003.67
2016-04-12T08:21:53.688Z,1003.66
2016-04-12T08:22:53.737Z,1003.63
2016-04-12T08:23:53.788Z,1003.66
2016-04-12T08:24:53.836Z,1003.62
2016-04-12T08:25:53.885Z,1003.62
2016-04-12T08:26:53.951Z,1003.6
2016-04-12T08:27:54.001Z,1003.59
2016-04-12T08:28:54.035Z,1003.52
2016-04-12T08:29:54.100Z,1003.55
2016-04-12T08:30:54.149Z,1003.51
2016-04-12T08:31:54.199Z,1003.53
2016-04-12T08:32:54.248Z,1003.52
2016-04-12T08:33:54.298Z,1003.6
2016-04-12T08:34:54.363Z,1003.62
2016-04-12T08:35:54.413Z,1003.6
2016-04-12T08:36:54.447Z,1003.6
2016-04-12T08:37:54.512Z,1003.67
2016-04-12T08:38:54.562Z,1003.64
2016-04-12T08:39:54.612Z,1003.61
2016-04-12T08:40:54.661Z,1003.63
2016-04-12T08:41:54.711Z,1003.63
2016-04-12T08:42:54.760Z,1003.67
2016-04-12T08:43:54.825Z,1003.67
2016-04-12T08:44:54.859Z,1003.61
2016-04-12T08:45:54.909Z,1003.71
2016-04-12T08:46:54.958Z,1003.7
2016-04-12T08:47:55.008Z,1003.71
2016-04-12T08:48:55.058Z,1003.74
2016-04-12T08:49:55.122Z,1003.7
2016-04-12T08:50:55.172Z,1003.7
2016-04-12T08:51:55.222Z,1003.73
2016-04-12T08:52:55.271Z,1003.73
2016-04-12T08:53:55.321Z,1003.66
2016-04-12T08:54:55.371Z,1003.68
2016-04-12T08:55:55.420Z,1003.71
2016-04-12T08:56:55.469Z,1003.71
2016-04-12T08:57:55.535Z,1003.71
2016-04-12T08:58:55.569Z,1003.69
2016-04-12T08:59:55.618Z,1003.73
2016-04-12T09:00:55.683Z,1003.76
2016-04-12T09:01:55.733Z,1003.69
2016-04-12T09:02:55.782Z,1003.7
2016-04-12T09:03:55.832Z,1003.72
2016-04-12T09:04:55.881Z,1003.71
2016-04-12T09:05:55.931Z,1003.66
2016-04-12T09:06:56.043Z,1003.68
2016-04-12T09:07:56.046Z,1003.7
2016-04-12T09:08:56.084Z,1003.71
2016-04-12T09:09:56.134Z,1003.77
2016-04-12T09:10:56.184Z,1003.79
2016-04-12T09:11:56.234Z,1003.78
2016-04-12T09:12:56.283Z,1003.81
2016-04-12T09:13:56.333Z,1003.82
2016-04-12T09:14:56.397Z,1003.79
2016-04-12T09:15:56.447Z,1003.85
2016-04-12T09:16:56.497Z,1003.78
2016-04-12T09:17:56.547Z,1003.78
2016-04-12T09:18:56.596Z,1003.76
2016-04-12T09:19:56.646Z,1003.8
2016-04-12T09:20:56.694Z,1003.73
2016-04-12T09:21:56.744Z,1003.71
2016-04-12T09:22:56.810Z,1003.68
2016-04-12T09:23:56.860Z,1003.71
2016-04-12T09:24:56.909Z,1003.71
2016-04-12T09:25:56.958Z,1003.65
2016-04-12T09:26:57.008Z,1003.69
2016-04-12T09:27:57.057Z,1003.62
2016-04-12T09:28:57.107Z,1003.73
2016-04-12T09:29:57.157Z,1003.65
2016-04-12T09:30:57.207Z,1003.64
2016-04-12T09:31:57.256Z,1003.63
2016-04-12T09:32:57.321Z,1003.6
2016-04-12T09:33:57.371Z,1003.63
2016-04-12T09:34:57.421Z,1003.58
2016-04-12T09:35:57.470Z,1003.54
2016-04-12T09:36:57.520Z,1003.58
2016-04-12T09:37:57.569Z,1003.54
2016-04-12T09:38:57.634Z,1003.54
2016-04-12T09:39:57.668Z,1003.53
2016-04-12T09:40:57.734Z,1003.48
2016-04-12T09:41:57.783Z,1003.5
2016-04-12T09:42:57.833Z,1003.47
2016-04-12T09:43:57.881Z,1003.54
2016-04-12T09:44:57.931Z,1003.5
2016-04-12T09:45:57.981Z,1003.54
2016-04-12T09:46:58.031Z,1003.49
2016-04-12T09:47:58.080Z,1003.55
2016-04-12T09:48:58.145Z,1003.54
2016-04-12T09:49:58.195Z,1003.47
2016-04-12T09:50:58.244Z,1003.45
2016-04-12T09:51:58.309Z,1003.46
2016-04-12T09:52:58.343Z,1003.45
2016-04-12T09:53:58.409Z,1003.47
2016-04-12T09:54:58.458Z,1003.47
2016-04-12T09:55:58.493Z,1003.49
2016-04-12T09:56:58.557Z,1003.46
2016-04-12T09:57:58.607Z,1003.42
2016-04-12T09:58:58.657Z,1003.44
2016-04-12T09:59:58.707Z,1003.44
2016-04-12T10:00:58.757Z,1003.4
2016-04-12T10:01:58.805Z,1003.4
2016-04-12T10:02:58.854Z,1003.38
2016-04-12T10:03:58.904Z,1003.36
2016-04-12T10:04:58.970Z,1003.38
2016-04-12T10:05:59.019Z,1003.4
2016-04-12T10:06:59.069Z,1003.32
2016-04-12T10:07:59.118Z,1003.31
2016-04-12T10:08:59.168Z,1003.36
2016-04-12T10:09:59.217Z,1003.36
2016-04-12T10:10:59.283Z,1003.33
2016-04-12T10:11:59.332Z,1003.39
2016-04-12T10:12:59.366Z,1003.36
2016-04-12T10:13:59.431Z,1003.34
2016-04-12T10:14:59.480Z,1003.35
2016-04-12T10:15:59.531Z,1003.33
2016-04-12T10:16:59.595Z,1003.33
2016-04-12T10:17:59.630Z,1003.38
2016-04-12T10:18:59.694Z,1003.33
2016-04-12T10:19:59.744Z,1003.34
2016-04-12T10:20:59.794Z,1003.32
2016-04-12T10:21:59.844Z,1003.35
2016-04-12T10:22:59.894Z,1003.34
2016-04-12T10:23:59.943Z,1003.35
2016-04-12T10:24:59.991Z,1003.32
2016-04-12T10:26:00.041Z,1003.3
2016-04-12T10:27:00.107Z,1003.3
2016-04-12T10:28:00.157Z,1003.34
2016-04-12T10:29:00.206Z,1003.34
2016-04-12T10:30:00.255Z,1003.29
2016-04-12T10:31:00.305Z,1003.29
2016-04-12T10:32:00.354Z,1003.25
2016-04-12T10:33:00.404Z,1003.26
2016-04-12T10:34:00.470Z,1003.29
2016-04-12T10:35:00.518Z,1003.32
2016-04-12T10:36:00.569Z,1003.31
2016-04-12T10:37:00.618Z,1003.33
2016-04-12T10:38:00.668Z,1003.3
2016-04-12T10:39:00.717Z,1003.38
2016-04-12T10:40:00.782Z,1003.34
2016-04-12T10:41:00.831Z,1003.27
2016-04-12T10:42:00.881Z,1003.29
2016-04-12T10:43:00.932Z,1003.3
2016-04-12T10:44:00.981Z,1003.3
2016-04-12T10:45:01.031Z,1003.26
2016-04-12T10:46:01.095Z,1003.23
2016-04-12T10:47:01.145Z,1003.26
2016-04-12T10:48:01.195Z,1003.26
2016-04-12T10:49:01.245Z,1003.24
2016-04-12T10:50:01.294Z,1003.26
2016-04-12T10:51:01.343Z,1003.18
2016-04-12T10:52:01.394Z,1003.25
2016-04-12T10:53:01.442Z,1003.19
2016-04-12T10:54:01.508Z,1003.2
2016-04-12T10:55:01.558Z,1003.2
2016-04-12T10:56:01.607Z,1003.13
2016-04-12T10:57:01.657Z,1003.13
2016-04-12T10:58:01.721Z,1003.09
2016-04-12T10:59:01.755Z,1003.07
2016-04-12T11:00:01.805Z,1003.04
2016-04-12T11:01:01.870Z,1003.08
2016-04-12T11:02:01.920Z,1003.06
2016-04-12T11:03:01.969Z,1003.03
2016-04-12T11:04:02.018Z,1003.04
2016-04-12T11:05:02.068Z,1003.04
2016-04-12T11:06:02.134Z,1003.01
2016-04-12T11:07:02.167Z,1003
2016-04-12T11:08:02.217Z,1003.02
2016-04-12T11:09:02.283Z,1003.01
2016-04-12T11:10:02.332Z,1003.05
2016-04-12T11:11:02.381Z,1003.05
2016-04-12T11:12:02.431Z,1003.01
2016-04-12T11:13:02.495Z,1002.98
2016-04-12T11:14:02.546Z,1003
2016-04-12T11:15:02.595Z,1002.99
2016-04-12T11:16:02.645Z,1002.99
2016-04-12T11:17:02.694Z,1002.96
2016-04-12T11:18:02.744Z,1002.98
2016-04-12T11:19:02.794Z,1003.01
2016-04-12T11:20:02.858Z,1002.98
2016-04-12T11:21:02.908Z,1003.02
2016-04-12T11:22:02.958Z,1003.02
2016-04-12T11:23:03.008Z,1003.02
2016-04-12T11:24:03.058Z,1003.04
2016-04-12T11:25:03.107Z,1003.04
2016-04-12T11:26:03.156Z,1003.01
2016-04-12T11:27:03.221Z,1002.98
2016-04-12T11:28:03.255Z,1003.14
2016-04-12T11:29:03.321Z,1002.99
2016-04-12T11:30:03.371Z,1002.99
2016-04-12T11:31:03.420Z,1002.97
2016-04-12T11:32:03.468Z,1002.98
2016-04-12T11:33:03.519Z,1002.96
2016-04-12T11:34:03.616Z,1002.95
2016-04-12T11:35:03.618Z,1002.93
2016-04-12T11:36:03.683Z,1002.94
2016-04-12T11:37:03.748Z,1002.93
2016-04-12T11:38:03.782Z,1002.95
2016-04-12T11:39:03.831Z,1002.91
2016-04-12T11:40:03.881Z,1002.94
2016-04-12T11:41:03.931Z,1002.89
2016-04-12T11:42:03.995Z,1002.88
2016-04-12T11:43:04.045Z,1002.86
2016-04-12T11:44:04.096Z,1002.87
2016-04-12T11:45:04.145Z,1002.88
2016-04-12T11:46:04.194Z,1002.88
2016-04-12T11:47:04.259Z,1002.93
2016-04-12T11:48:04.294Z,1002.85
2016-04-12T11:49:04.359Z,1002.91
2016-04-12T11:50:04.408Z,1002.9
2016-04-12T11:51:04.458Z,1002.85
2016-04-12T11:52:04.507Z,1002.95
2016-04-12T11:53:04.557Z,1002.82
2016-04-12T11:54:04.606Z,1002.84
2016-04-12T11:55:04.656Z,1002.84
2016-04-12T11:56:04.721Z,1002.79
2016-04-12T11:57:04.771Z,1002.83
2016-04-12T11:58:04.821Z,1002.77
2016-04-12T11:59:04.870Z,1002.71
2016-04-12T12:00:04.920Z,1002.75
2016-04-12T12:01:04.969Z,1002.7
2016-04-12T12:02:05.035Z,1002.69
2016-04-12T12:03:05.084Z,1002.76
2016-04-12T12:04:05.133Z,1002.69
2016-04-12T12:05:05.183Z,1002.69
2016-04-12T12:06:05.232Z,1002.79
2016-04-12T12:07:05.282Z,1002.67
2016-04-12T12:08:05.348Z,1002.7
2016-04-12T12:09:05.381Z,1002.76